sensor_id;sensor_type;location;lat;lon;timestamp;temperature;humidity
7290;DHT22;63176;52.678;13.250;2024-03-08T00:01:53;1.10;99.90
7290;DHT22;63176;52.678;13.250;2024-03-08T00:04:19;0.80;99.90
7290;DHT22;63176;52.678;13.250;2024-03-08T00:06:44;0.90;99.90
7290;DHT22;63176;52.678;13.250;2024-03-08T00:09:11;0.80;99.90
7290;DHT22;63176;52.678;13.250;2024-03-08T00:11:37;0.90;99.90
7290;DHT22;63176;52.678;13.250;2024-03-08T00:14:03;0.90;99.90
7290;DHT22;63176;52.678;13.250;2024-03-08T00:16:32;0.90;99.90
7290;DHT22;63176;52.678;13.250;2024-03-08T00:18:58;0.90;99.90
7290;DHT22;63176;52.678;13.250;2024-03-08T00:21:23;0.80;99.90
7290;DHT22;63176;52.678;13.250;2024-03-08T00:23:49;0.70;99.90
7290;DHT22;63176;52.678;13.250;2024-03-08T00:26:15;0.70;99.90
7290;DHT22;63176;52.678;13.250;2024-03-08T00:28:40;0.70;99.90
7290;DHT22;63176;52.678;13.250;2024-03-08T00:31:06;0.70;99.90
7290;DHT22;63176;52.678;13.250;2024-03-08T00:33:32;0.80;99.90
7290;DHT22;63176;52.678;13.250;2024-03-08T00:35:58;0.80;99.90
7290;DHT22;63176;52.678;13.250;2024-03-08T00:38:24;0.70;99.90
7290;DHT22;63176;52.678;13.250;2024-03-08T00:40:49;0.70;99.90
7290;DHT22;63176;52.678;13.250;2024-03-08T00:43:15;0.70;99.90
7290;DHT22;63176;52.678;13.250;2024-03-08T00:45:41;0.60;99.90
7290;DHT22;63176;52.678;13.250;2024-03-08T00:48:08;0.60;99.90
7290;DHT22;63176;52.678;13.250;2024-03-08T00:50:34;0.60;99.90
7290;DHT22;63176;52.678;13.250;2024-03-08T00:53:00;0.80;99.90
7290;DHT22;63176;52.678;13.250;2024-03-08T00:55:26;0.50;99.90
7290;DHT22;63176;52.678;13.250;2024-03-08T00:57:52;0.70;99.90
7290;DHT22;63176;52.678;13.250;2024-03-08T01:00:19;0.50;99.90
7290;DHT22;63176;52.678;13.250;2024-03-08T01:02:45;0.60;99.90
7290;DHT22;63176;52.678;13.250;2024-03-08T01:05:11;0.60;99.90
7290;DHT22;63176;52.678;13.250;2024-03-08T01:07:37;0.70;99.90
7290;DHT22;63176;52.678;13.250;2024-03-08T01:10:06;0.90;99.90
7290;DHT22;63176;52.678;13.250;2024-03-08T01:12:38;0.70;99.90
7290;DHT22;63176;52.678;13.250;2024-03-08T01:15:04;0.80;99.90
7290;DHT22;63176;52.678;13.250;2024-03-08T01:17:31;0.60;99.90
7290;DHT22;63176;52.678;13.250;2024-03-08T01:19:56;0.70;99.90
7290;DHT22;63176;52.678;13.250;2024-03-08T01:22:22;0.80;99.90
7290;DHT22;63176;52.678;13.250;2024-03-08T01:24:48;0.60;99.90
7290;DHT22;63176;52.678;13.250;2024-03-08T01:27:14;0.80;99.90
7290;DHT22;63176;52.678;13.250;2024-03-08T01:29:40;0.80;99.90
7290;DHT22;63176;52.678;13.250;2024-03-08T01:32:05;0.70;99.90
7290;DHT22;63176;52.678;13.250;2024-03-08T01:34:31;0.50;99.90
7290;DHT22;63176;52.678;13.250;2024-03-08T01:36:58;0.70;99.90
7290;DHT22;63176;52.678;13.250;2024-03-08T01:39:24;0.40;99.90
7290;DHT22;63176;52.678;13.250;2024-03-08T01:41:50;0.70;99.90
7290;DHT22;63176;52.678;13.250;2024-03-08T01:44:16;0.50;99.90
7290;DHT22;63176;52.678;13.250;2024-03-08T01:46:47;0.70;99.90
7290;DHT22;63176;52.678;13.250;2024-03-08T01:49:14;0.60;99.90
7290;DHT22;63176;52.678;13.250;2024-03-08T01:51:41;0.70;99.90
7290;DHT22;63176;52.678;13.250;2024-03-08T01:54:08;0.40;99.90
7290;DHT22;63176;52.678;13.250;2024-03-08T01:56:36;0.40;99.90
7290;DHT22;63176;52.678;13.250;2024-03-08T01:59:03;0.60;99.90
7290;DHT22;63176;52.678;13.250;2024-03-08T02:01:29;1.00;99.90
7290;DHT22;63176;52.678;13.250;2024-03-08T02:03:54;0.50;99.90
7290;DHT22;63176;52.678;13.250;2024-03-08T02:06:20;0.60;99.90
7290;DHT22;63176;52.678;13.250;2024-03-08T02:08:46;0.50;99.90
7290;DHT22;63176;52.678;13.250;2024-03-08T02:11:12;0.60;99.90
7290;DHT22;63176;52.678;13.250;2024-03-08T02:13:38;0.70;99.90
7290;DHT22;63176;52.678;13.250;2024-03-08T02:16:04;0.60;99.90
7290;DHT22;63176;52.678;13.250;2024-03-08T02:18:33;0.60;99.90
7290;DHT22;63176;52.678;13.250;2024-03-08T02:21:01;0.80;99.90
7290;DHT22;63176;52.678;13.250;2024-03-08T02:23:30;0.60;99.90
7290;DHT22;63176;52.678;13.250;2024-03-08T02:25:57;0.70;99.90
7290;DHT22;63176;52.678;13.250;2024-03-08T02:28:23;1.00;99.90
7290;DHT22;63176;52.678;13.250;2024-03-08T02:30:50;0.80;99.90
7290;DHT22;63176;52.678;13.250;2024-03-08T02:33:17;0.90;99.90
7290;DHT22;63176;52.678;13.250;2024-03-08T02:35:44;0.80;99.90
7290;DHT22;63176;52.678;13.250;2024-03-08T02:38:17;0.70;99.90
7290;DHT22;63176;52.678;13.250;2024-03-08T02:40:44;0.50;99.90
7290;DHT22;63176;52.678;13.250;2024-03-08T02:43:11;0.80;99.90
7290;DHT22;63176;52.678;13.250;2024-03-08T02:45:37;0.60;99.90
7290;DHT22;63176;52.678;13.250;2024-03-08T02:48:04;0.50;99.90
7290;DHT22;63176;52.678;13.250;2024-03-08T02:50:32;0.40;99.90
7290;DHT22;63176;52.678;13.250;2024-03-08T02:52:57;0.60;99.90
7290;DHT22;63176;52.678;13.250;2024-03-08T02:55:23;0.50;99.90
7290;DHT22;63176;52.678;13.250;2024-03-08T02:57:51;0.50;99.90
7290;DHT22;63176;52.678;13.250;2024-03-08T03:00:18;0.50;99.90
7290;DHT22;63176;52.678;13.250;2024-03-08T03:02:45;0.60;99.90
7290;DHT22;63176;52.678;13.250;2024-03-08T03:05:11;0.60;99.90
7290;DHT22;63176;52.678;13.250;2024-03-08T03:07:37;0.60;99.90
7290;DHT22;63176;52.678;13.250;2024-03-08T03:10:03;0.70;99.90
7290;DHT22;63176;52.678;13.250;2024-03-08T03:12:30;0.50;99.90
7290;DHT22;63176;52.678;13.250;2024-03-08T03:14:57;0.80;99.90
7290;DHT22;63176;52.678;13.250;2024-03-08T03:17:26;0.90;99.90
7290;DHT22;63176;52.678;13.250;2024-03-08T03:19:52;0.80;99.90
7290;DHT22;63176;52.678;13.250;2024-03-08T03:22:19;0.70;99.90
7290;DHT22;63176;52.678;13.250;2024-03-08T03:24:47;0.80;99.90
7290;DHT22;63176;52.678;13.250;2024-03-08T03:27:13;0.80;99.90
7290;DHT22;63176;52.678;13.250;2024-03-08T03:29:41;0.80;99.90
7290;DHT22;63176;52.678;13.250;2024-03-08T03:32:13;0.70;99.90
7290;DHT22;63176;52.678;13.250;2024-03-08T03:34:40;0.70;99.90
7290;DHT22;63176;52.678;13.250;2024-03-08T03:37:06;0.90;99.90
7290;DHT22;63176;52.678;13.250;2024-03-08T03:39:38;0.80;99.90
7290;DHT22;63176;52.678;13.250;2024-03-08T03:42:17;0.50;99.90
7290;DHT22;63176;52.678;13.250;2024-03-08T03:44:47;0.60;99.90
7290;DHT22;63176;52.678;13.250;2024-03-08T03:47:13;0.70;99.90
7290;DHT22;63176;52.678;13.250;2024-03-08T03:49:40;0.90;99.90
7290;DHT22;63176;52.678;13.250;2024-03-08T03:52:06;0.70;99.90
7290;DHT22;63176;52.678;13.250;2024-03-08T03:54:31;0.60;99.90
7290;DHT22;63176;52.678;13.250;2024-03-08T03:56:58;0.60;99.90
7290;DHT22;63176;52.678;13.250;2024-03-08T03:59:24;0.50;99.90
7290;DHT22;63176;52.678;13.250;2024-03-08T04:01:49;0.60;99.90
7290;DHT22;63176;52.678;13.250;2024-03-08T04:04:15;0.40;99.90
7290;DHT22;63176;52.678;13.250;2024-03-08T04:06:41;0.50;99.90
7290;DHT22;63176;52.678;13.250;2024-03-08T04:09:07;0.30;99.90
7290;DHT22;63176;52.678;13.250;2024-03-08T04:11:33;0.60;99.90
7290;DHT22;63176;52.678;13.250;2024-03-08T04:13:58;0.50;99.90
7290;DHT22;63176;52.678;13.250;2024-03-08T04:16:24;0.50;99.90
7290;DHT22;63176;52.678;13.250;2024-03-08T04:18:51;0.60;99.90
7290;DHT22;63176;52.678;13.250;2024-03-08T04:21:17;0.80;99.90
7290;DHT22;63176;52.678;13.250;2024-03-08T04:23:44;0.60;99.90
7290;DHT22;63176;52.678;13.250;2024-03-08T04:26:10;0.50;99.90
7290;DHT22;63176;52.678;13.250;2024-03-08T04:28:36;0.70;99.90
7290;DHT22;63176;52.678;13.250;2024-03-08T04:31:03;0.70;99.90
7290;DHT22;63176;52.678;13.250;2024-03-08T04:33:28;0.50;99.90
7290;DHT22;63176;52.678;13.250;2024-03-08T04:35:54;0.50;99.90
7290;DHT22;63176;52.678;13.250;2024-03-08T04:38:20;0.60;99.90
7290;DHT22;63176;52.678;13.250;2024-03-08T04:40:45;0.60;99.90
7290;DHT22;63176;52.678;13.250;2024-03-08T04:43:11;0.40;99.90
7290;DHT22;63176;52.678;13.250;2024-03-08T04:45:37;0.40;99.90
7290;DHT22;63176;52.678;13.250;2024-03-08T04:48:03;0.40;99.90
7290;DHT22;63176;52.678;13.250;2024-03-08T04:50:28;0.50;99.90
7290;DHT22;63176;52.678;13.250;2024-03-08T04:52:55;0.50;99.90
7290;DHT22;63176;52.678;13.250;2024-03-08T04:55:20;0.50;99.90
7290;DHT22;63176;52.678;13.250;2024-03-08T04:57:47;0.40;99.90
7290;DHT22;63176;52.678;13.250;2024-03-08T05:00:13;0.40;99.90
7290;DHT22;63176;52.678;13.250;2024-03-08T05:02:41;0.40;99.90
7290;DHT22;63176;52.678;13.250;2024-03-08T05:05:07;0.40;99.90
7290;DHT22;63176;52.678;13.250;2024-03-08T05:07:33;0.40;99.90
7290;DHT22;63176;52.678;13.250;2024-03-08T05:09:59;0.30;99.90
7290;DHT22;63176;52.678;13.250;2024-03-08T05:12:25;0.40;99.90
7290;DHT22;63176;52.678;13.250;2024-03-08T05:14:51;0.40;99.90
7290;DHT22;63176;52.678;13.250;2024-03-08T05:17:17;0.30;99.90
7290;DHT22;63176;52.678;13.250;2024-03-08T05:19:42;0.20;99.90
7290;DHT22;63176;52.678;13.250;2024-03-08T05:22:09;0.20;99.90
7290;DHT22;63176;52.678;13.250;2024-03-08T05:24:37;0.60;99.90
7290;DHT22;63176;52.678;13.250;2024-03-08T05:27:03;0.50;99.90
7290;DHT22;63176;52.678;13.250;2024-03-08T05:29:29;0.30;99.90
7290;DHT22;63176;52.678;13.250;2024-03-08T05:31:55;0.40;99.90
7290;DHT22;63176;52.678;13.250;2024-03-08T05:34:22;0.40;99.90
7290;DHT22;63176;52.678;13.250;2024-03-08T05:36:48;0.30;99.90
7290;DHT22;63176;52.678;13.250;2024-03-08T05:39:16;0.40;99.90
7290;DHT22;63176;52.678;13.250;2024-03-08T05:41:43;0.20;99.90
7290;DHT22;63176;52.678;13.250;2024-03-08T05:44:09;0.30;99.90
7290;DHT22;63176;52.678;13.250;2024-03-08T05:46:35;0.40;99.90
7290;DHT22;63176;52.678;13.250;2024-03-08T05:49:05;0.40;99.90
7290;DHT22;63176;52.678;13.250;2024-03-08T05:51:35;0.30;99.90
7290;DHT22;63176;52.678;13.250;2024-03-08T05:54:02;0.40;99.90
7290;DHT22;63176;52.678;13.250;2024-03-08T05:56:34;0.30;99.90
7290;DHT22;63176;52.678;13.250;2024-03-08T05:58:59;0.30;99.90
7290;DHT22;63176;52.678;13.250;2024-03-08T06:01:25;0.40;99.90
7290;DHT22;63176;52.678;13.250;2024-03-08T06:03:52;0.60;99.90
7290;DHT22;63176;52.678;13.250;2024-03-08T06:06:21;0.20;99.90
7290;DHT22;63176;52.678;13.250;2024-03-08T06:08:47;0.20;99.90
7290;DHT22;63176;52.678;13.250;2024-03-08T06:11:14;0.20;99.90
7290;DHT22;63176;52.678;13.250;2024-03-08T06:13:40;0.20;99.90
7290;DHT22;63176;52.678;13.250;2024-03-08T06:16:05;0.40;99.90
7290;DHT22;63176;52.678;13.250;2024-03-08T06:18:34;0.30;99.90
7290;DHT22;63176;52.678;13.250;2024-03-08T06:21:05;0.40;99.90
7290;DHT22;63176;52.678;13.250;2024-03-08T06:23:32;0.20;99.90
7290;DHT22;63176;52.678;13.250;2024-03-08T06:25:57;0.30;99.90
7290;DHT22;63176;52.678;13.250;2024-03-08T06:28:23;0.30;99.90
7290;DHT22;63176;52.678;13.250;2024-03-08T06:30:49;0.30;99.90
7290;DHT22;63176;52.678;13.250;2024-03-08T06:33:17;0.30;99.90
7290;DHT22;63176;52.678;13.250;2024-03-08T06:35:42;0.30;99.90
7290;DHT22;63176;52.678;13.250;2024-03-08T06:38:08;0.50;99.90
7290;DHT22;63176;52.678;13.250;2024-03-08T06:40:33;0.60;99.90
7290;DHT22;63176;52.678;13.250;2024-03-08T06:42:59;0.90;99.90
7290;DHT22;63176;52.678;13.250;2024-03-08T06:45:25;0.60;99.90
7290;DHT22;63176;52.678;13.250;2024-03-08T06:47:51;1.00;99.90
7290;DHT22;63176;52.678;13.250;2024-03-08T06:50:17;0.90;99.90
7290;DHT22;63176;52.678;13.250;2024-03-08T06:52:43;1.00;99.90
7290;DHT22;63176;52.678;13.250;2024-03-08T06:55:09;1.10;99.90
7290;DHT22;63176;52.678;13.250;2024-03-08T06:57:39;1.40;99.90
7290;DHT22;63176;52.678;13.250;2024-03-08T07:00:07;1.20;99.90
7290;DHT22;63176;52.678;13.250;2024-03-08T07:02:35;1.30;99.90
7290;DHT22;63176;52.678;13.250;2024-03-08T07:05:01;1.40;99.90
7290;DHT22;63176;52.678;13.250;2024-03-08T07:07:27;1.50;99.90
7290;DHT22;63176;52.678;13.250;2024-03-08T07:09:52;1.60;99.90
7290;DHT22;63176;52.678;13.250;2024-03-08T07:12:18;1.70;99.90
7290;DHT22;63176;52.678;13.250;2024-03-08T07:14:46;2.00;99.90
7290;DHT22;63176;52.678;13.250;2024-03-08T07:17:12;1.80;99.90
7290;DHT22;63176;52.678;13.250;2024-03-08T07:19:38;2.00;99.90
7290;DHT22;63176;52.678;13.250;2024-03-08T07:22:04;2.00;99.90
7290;DHT22;63176;52.678;13.250;2024-03-08T07:24:36;2.20;99.90
7290;DHT22;63176;52.678;13.250;2024-03-08T07:27:21;2.30;99.90
7290;DHT22;63176;52.678;13.250;2024-03-08T07:29:46;2.40;99.90
7290;DHT22;63176;52.678;13.250;2024-03-08T07:32:13;2.80;99.90
7290;DHT22;63176;52.678;13.250;2024-03-08T07:34:47;2.50;99.90
7290;DHT22;63176;52.678;13.250;2024-03-08T07:37:14;2.60;99.90
7290;DHT22;63176;52.678;13.250;2024-03-08T07:39:40;2.80;99.90
7290;DHT22;63176;52.678;13.250;2024-03-08T07:42:05;2.80;99.90
7290;DHT22;63176;52.678;13.250;2024-03-08T07:44:31;2.90;99.90
7290;DHT22;63176;52.678;13.250;2024-03-08T07:46:58;3.00;99.90
7290;DHT22;63176;52.678;13.250;2024-03-08T07:49:24;3.10;99.90
7290;DHT22;63176;52.678;13.250;2024-03-08T07:51:49;3.20;99.90
7290;DHT22;63176;52.678;13.250;2024-03-08T07:54:15;3.40;99.90
7290;DHT22;63176;52.678;13.250;2024-03-08T07:56:41;3.40;99.90
7290;DHT22;63176;52.678;13.250;2024-03-08T07:59:07;3.50;99.90
7290;DHT22;63176;52.678;13.250;2024-03-08T08:01:33;3.60;99.90
7290;DHT22;63176;52.678;13.250;2024-03-08T08:03:59;3.60;99.90
7290;DHT22;63176;52.678;13.250;2024-03-08T08:06:27;3.70;99.90
7290;DHT22;63176;52.678;13.250;2024-03-08T08:08:52;3.70;99.90
7290;DHT22;63176;52.678;13.250;2024-03-08T08:11:18;3.90;99.90
7290;DHT22;63176;52.678;13.250;2024-03-08T08:13:44;3.90;99.90
7290;DHT22;63176;52.678;13.250;2024-03-08T08:16:09;4.10;99.90
7290;DHT22;63176;52.678;13.250;2024-03-08T08:18:38;4.20;99.90
7290;DHT22;63176;52.678;13.250;2024-03-08T08:21:05;4.60;99.90
7290;DHT22;63176;52.678;13.250;2024-03-08T08:23:32;4.90;99.90
7290;DHT22;63176;52.678;13.250;2024-03-08T08:25:57;5.30;99.90
7290;DHT22;63176;52.678;13.250;2024-03-08T08:28:23;5.50;99.90
7290;DHT22;63176;52.678;13.250;2024-03-08T08:30:50;5.70;99.90
7290;DHT22;63176;52.678;13.250;2024-03-08T08:33:16;5.80;99.90
7290;DHT22;63176;52.678;13.250;2024-03-08T08:35:41;5.70;99.90
7290;DHT22;63176;52.678;13.250;2024-03-08T08:38:08;5.90;99.90
7290;DHT22;63176;52.678;13.250;2024-03-08T08:40:34;5.90;99.90
7290;DHT22;63176;52.678;13.250;2024-03-08T08:43:01;5.90;99.90
7290;DHT22;63176;52.678;13.250;2024-03-08T08:45:30;6.00;99.90
7290;DHT22;63176;52.678;13.250;2024-03-08T08:47:56;6.10;99.90
7290;DHT22;63176;52.678;13.250;2024-03-08T08:50:22;6.20;99.90
7290;DHT22;63176;52.678;13.250;2024-03-08T08:52:52;6.40;99.90
7290;DHT22;63176;52.678;13.250;2024-03-08T08:55:18;6.50;99.90
7290;DHT22;63176;52.678;13.250;2024-03-08T08:57:47;6.80;99.90
7290;DHT22;63176;52.678;13.250;2024-03-08T09:00:13;7.10;99.90
7290;DHT22;63176;52.678;13.250;2024-03-08T09:02:43;7.60;99.90
7290;DHT22;63176;52.678;13.250;2024-03-08T09:05:09;8.10;99.90
7290;DHT22;63176;52.678;13.250;2024-03-08T09:07:35;8.70;99.90
7290;DHT22;63176;52.678;13.250;2024-03-08T09:10:01;9.40;99.90
7290;DHT22;63176;52.678;13.250;2024-03-08T09:12:27;9.80;99.90
7290;DHT22;63176;52.678;13.250;2024-03-08T09:14:53;10.00;99.90
7290;DHT22;63176;52.678;13.250;2024-03-08T09:17:19;10.20;99.90
7290;DHT22;63176;52.678;13.250;2024-03-08T09:19:49;10.40;99.90
7290;DHT22;63176;52.678;13.250;2024-03-08T09:22:15;10.40;99.90
7290;DHT22;63176;52.678;13.250;2024-03-08T09:24:41;10.40;99.90
7290;DHT22;63176;52.678;13.250;2024-03-08T09:27:09;10.30;99.90
7290;DHT22;63176;52.678;13.250;2024-03-08T09:29:35;10.30;99.90
7290;DHT22;63176;52.678;13.250;2024-03-08T09:32:01;10.20;99.90
7290;DHT22;63176;52.678;13.250;2024-03-08T09:34:27;10.20;99.90
7290;DHT22;63176;52.678;13.250;2024-03-08T09:36:52;10.10;99.90
7290;DHT22;63176;52.678;13.250;2024-03-08T09:39:19;10.20;99.90
7290;DHT22;63176;52.678;13.250;2024-03-08T09:41:46;10.30;99.90
7290;DHT22;63176;52.678;13.250;2024-03-08T09:44:15;10.50;99.90
7290;DHT22;63176;52.678;13.250;2024-03-08T09:46:42;10.70;99.90
7290;DHT22;63176;52.678;13.250;2024-03-08T09:49:09;10.80;99.90
7290;DHT22;63176;52.678;13.250;2024-03-08T09:51:37;10.90;99.90
7290;DHT22;63176;52.678;13.250;2024-03-08T09:54:06;11.20;99.90
7290;DHT22;63176;52.678;13.250;2024-03-08T09:56:32;11.50;99.90
7290;DHT22;63176;52.678;13.250;2024-03-08T09:58:59;11.60;99.90
7290;DHT22;63176;52.678;13.250;2024-03-08T10:01:36;11.70;99.90
7290;DHT22;63176;52.678;13.250;2024-03-08T10:04:04;11.70;99.90
7290;DHT22;63176;52.678;13.250;2024-03-08T10:06:30;11.70;99.90
7290;DHT22;63176;52.678;13.250;2024-03-08T10:08:56;11.90;99.90
7290;DHT22;63176;52.678;13.250;2024-03-08T10:11:22;12.10;99.90
7290;DHT22;63176;52.678;13.250;2024-03-08T10:13:49;12.00;99.90
7290;DHT22;63176;52.678;13.250;2024-03-08T10:16:15;12.00;99.90
7290;DHT22;63176;52.678;13.250;2024-03-08T10:18:42;12.30;99.90
7290;DHT22;63176;52.678;13.250;2024-03-08T10:21:08;12.70;99.90
7290;DHT22;63176;52.678;13.250;2024-03-08T10:23:36;12.80;99.90
7290;DHT22;63176;52.678;13.250;2024-03-08T10:26:16;13.30;99.90
7290;DHT22;63176;52.678;13.250;2024-03-08T10:28:45;13.60;99.90
7290;DHT22;63176;52.678;13.250;2024-03-08T10:31:13;13.70;99.90
7290;DHT22;63176;52.678;13.250;2024-03-08T10:33:40;13.50;99.90
7290;DHT22;63176;52.678;13.250;2024-03-08T10:36:10;13.30;99.90
7290;DHT22;63176;52.678;13.250;2024-03-08T10:38:38;13.60;99.90
7290;DHT22;63176;52.678;13.250;2024-03-08T10:41:08;14.00;99.90
7290;DHT22;63176;52.678;13.250;2024-03-08T10:47:41;13.90;99.90
7290;DHT22;63176;52.678;13.250;2024-03-08T10:50:18;13.80;99.90
7290;DHT22;63176;52.678;13.250;2024-03-08T10:52:51;13.30;99.90
7290;DHT22;63176;52.678;13.250;2024-03-08T10:55:19;12.90;99.90
7290;DHT22;63176;52.678;13.250;2024-03-08T10:57:46;12.60;99.90
7290;DHT22;63176;52.678;13.250;2024-03-08T11:00:16;12.20;99.90
7290;DHT22;63176;52.678;13.250;2024-03-08T11:02:44;11.90;99.90
7290;DHT22;63176;52.678;13.250;2024-03-08T11:05:11;11.80;99.90
7290;DHT22;63176;52.678;13.250;2024-03-08T11:07:42;11.60;99.90
7290;DHT22;63176;52.678;13.250;2024-03-08T11:10:19;11.40;99.90
7290;DHT22;63176;52.678;13.250;2024-03-08T11:12:45;11.40;99.90
7290;DHT22;63176;52.678;13.250;2024-03-08T11:15:13;11.10;99.90
7290;DHT22;63176;52.678;13.250;2024-03-08T11:17:40;11.00;99.90
7290;DHT22;63176;52.678;13.250;2024-03-08T11:20:13;10.90;99.90
7290;DHT22;63176;52.678;13.250;2024-03-08T11:22:54;10.90;99.90
7290;DHT22;63176;52.678;13.250;2024-03-08T11:25:37;11.00;99.90
7290;DHT22;63176;52.678;13.250;2024-03-08T11:33:29;11.10;99.90
7290;DHT22;63176;52.678;13.250;2024-03-08T11:36:10;11.10;99.90
7290;DHT22;63176;52.678;13.250;2024-03-08T11:38:45;11.20;99.90
7290;DHT22;63176;52.678;13.250;2024-03-08T11:41:23;11.50;99.90
7290;DHT22;63176;52.678;13.250;2024-03-08T11:43:50;11.60;99.90
7290;DHT22;63176;52.678;13.250;2024-03-08T11:46:26;11.60;99.90
7290;DHT22;63176;52.678;13.250;2024-03-08T11:48:54;11.50;99.90
7290;DHT22;63176;52.678;13.250;2024-03-08T11:51:21;11.70;99.90
7290;DHT22;63176;52.678;13.250;2024-03-08T11:53:49;12.40;99.90
7290;DHT22;63176;52.678;13.250;2024-03-08T11:56:15;13.10;99.90
7290;DHT22;63176;52.678;13.250;2024-03-08T11:58:41;13.20;99.90
7290;DHT22;63176;52.678;13.250;2024-03-08T12:01:08;13.30;99.90
7290;DHT22;63176;52.678;13.250;2024-03-08T12:03:42;13.30;99.90
7290;DHT22;63176;52.678;13.250;2024-03-08T12:06:08;13.20;99.90
7290;DHT22;63176;52.678;13.250;2024-03-08T12:08:35;13.30;99.90
7290;DHT22;63176;52.678;13.250;2024-03-08T12:11:03;13.00;99.90
7290;DHT22;63176;52.678;13.250;2024-03-08T12:13:32;12.80;99.90
7290;DHT22;63176;52.678;13.250;2024-03-08T12:16:00;12.70;99.90
7290;DHT22;63176;52.678;13.250;2024-03-08T12:18:26;12.70;99.90
7290;DHT22;63176;52.678;13.250;2024-03-08T12:21:07;12.90;99.90
7290;DHT22;63176;52.678;13.250;2024-03-08T12:23:37;13.00;99.90
7290;DHT22;63176;52.678;13.250;2024-03-08T12:26:14;13.00;99.90
7290;DHT22;63176;52.678;13.250;2024-03-08T12:28:44;13.10;99.90
7290;DHT22;63176;52.678;13.250;2024-03-08T12:31:15;13.20;99.90
7290;DHT22;63176;52.678;13.250;2024-03-08T12:36:15;13.00;99.90
7290;DHT22;63176;52.678;13.250;2024-03-08T12:38:47;12.60;99.90
7290;DHT22;63176;52.678;13.250;2024-03-08T12:41:14;12.30;99.90
7290;DHT22;63176;52.678;13.250;2024-03-08T12:43:40;12.10;99.90
7290;DHT22;63176;52.678;13.250;2024-03-08T12:46:06;11.80;99.90
7290;DHT22;63176;52.678;13.250;2024-03-08T12:48:34;11.60;99.90
7290;DHT22;63176;52.678;13.250;2024-03-08T12:51:01;11.50;99.90
7290;DHT22;63176;52.678;13.250;2024-03-08T12:53:26;11.30;99.90
7290;DHT22;63176;52.678;13.250;2024-03-08T12:55:54;11.20;99.90
7290;DHT22;63176;52.678;13.250;2024-03-08T12:58:22;11.10;99.90
7290;DHT22;63176;52.678;13.250;2024-03-08T13:00:47;11.00;99.90
7290;DHT22;63176;52.678;13.250;2024-03-08T13:03:14;11.00;99.90
7290;DHT22;63176;52.678;13.250;2024-03-08T13:05:40;11.00;99.90
7290;DHT22;63176;52.678;13.250;2024-03-08T13:08:08;11.00;99.90
7290;DHT22;63176;52.678;13.250;2024-03-08T13:10:39;10.90;99.90
7290;DHT22;63176;52.678;13.250;2024-03-08T13:13:05;10.90;99.90
7290;DHT22;63176;52.678;13.250;2024-03-08T13:15:31;10.80;99.90
7290;DHT22;63176;52.678;13.250;2024-03-08T13:17:56;10.80;99.90
7290;DHT22;63176;52.678;13.250;2024-03-08T13:20:25;10.70;99.90
7290;DHT22;63176;52.678;13.250;2024-03-08T13:22:53;10.70;99.90
7290;DHT22;63176;52.678;13.250;2024-03-08T13:25:19;10.70;99.90
7290;DHT22;63176;52.678;13.250;2024-03-08T13:27:45;10.60;99.90
7290;DHT22;63176;52.678;13.250;2024-03-08T13:30:12;10.60;99.90
7290;DHT22;63176;52.678;13.250;2024-03-08T13:32:42;10.60;99.90
7290;DHT22;63176;52.678;13.250;2024-03-08T13:35:11;10.60;99.90
7290;DHT22;63176;52.678;13.250;2024-03-08T13:37:41;10.60;99.90
7290;DHT22;63176;52.678;13.250;2024-03-08T13:40:07;10.60;99.90
7290;DHT22;63176;52.678;13.250;2024-03-08T13:42:37;10.50;99.90
7290;DHT22;63176;52.678;13.250;2024-03-08T13:45:05;10.40;99.90
7290;DHT22;63176;52.678;13.250;2024-03-08T13:47:32;10.20;99.90
7290;DHT22;63176;52.678;13.250;2024-03-08T13:49:59;10.20;99.90
7290;DHT22;63176;52.678;13.250;2024-03-08T13:52:26;10.20;99.90
7290;DHT22;63176;52.678;13.250;2024-03-08T13:54:55;10.10;99.90
7290;DHT22;63176;52.678;13.250;2024-03-08T13:57:20;10.00;99.90
7290;DHT22;63176;52.678;13.250;2024-03-08T13:59:48;10.00;99.90
7290;DHT22;63176;52.678;13.250;2024-03-08T14:02:16;10.00;99.90
7290;DHT22;63176;52.678;13.250;2024-03-08T14:04:42;10.10;99.90
7290;DHT22;63176;52.678;13.250;2024-03-08T14:07:08;10.10;99.90
7290;DHT22;63176;52.678;13.250;2024-03-08T14:09:34;10.00;99.90
7290;DHT22;63176;52.678;13.250;2024-03-08T14:12:08;9.80;99.90
7290;DHT22;63176;52.678;13.250;2024-03-08T14:14:33;9.80;99.90
7290;DHT22;63176;52.678;13.250;2024-03-08T14:17:01;9.80;99.90
7290;DHT22;63176;52.678;13.250;2024-03-08T14:19:30;9.80;99.90
7290;DHT22;63176;52.678;13.250;2024-03-08T14:22:02;9.80;99.90
7290;DHT22;63176;52.678;13.250;2024-03-08T14:24:30;9.80;99.90
7290;DHT22;63176;52.678;13.250;2024-03-08T14:26:56;9.80;99.90
7290;DHT22;63176;52.678;13.250;2024-03-08T14:29:25;9.70;99.90
7290;DHT22;63176;52.678;13.250;2024-03-08T14:31:55;9.70;99.90
7290;DHT22;63176;52.678;13.250;2024-03-08T14:34:24;9.70;99.90
7290;DHT22;63176;52.678;13.250;2024-03-08T14:36:52;9.80;99.90
7290;DHT22;63176;52.678;13.250;2024-03-08T14:39:19;9.70;99.90
7290;DHT22;63176;52.678;13.250;2024-03-08T14:41:52;9.60;99.90
7290;DHT22;63176;52.678;13.250;2024-03-08T14:44:22;9.60;99.90
7290;DHT22;63176;52.678;13.250;2024-03-08T14:46:55;9.60;99.90
7290;DHT22;63176;52.678;13.250;2024-03-08T14:49:22;9.60;99.90
7290;DHT22;63176;52.678;13.250;2024-03-08T14:51:48;9.60;99.90
7290;DHT22;63176;52.678;13.250;2024-03-08T14:54:13;9.60;99.90
7290;DHT22;63176;52.678;13.250;2024-03-08T14:56:39;9.60;99.90
7290;DHT22;63176;52.678;13.250;2024-03-08T14:59:07;9.50;99.90
7290;DHT22;63176;52.678;13.250;2024-03-08T15:01:34;9.50;99.90
7290;DHT22;63176;52.678;13.250;2024-03-08T15:04:01;9.50;99.90
7290;DHT22;63176;52.678;13.250;2024-03-08T15:06:37;9.50;99.90
7290;DHT22;63176;52.678;13.250;2024-03-08T15:09:03;9.50;99.90
7290;DHT22;63176;52.678;13.250;2024-03-08T15:11:38;9.50;99.90
7290;DHT22;63176;52.678;13.250;2024-03-08T15:14:05;9.50;99.90
7290;DHT22;63176;52.678;13.250;2024-03-08T15:16:36;9.50;99.90
7290;DHT22;63176;52.678;13.250;2024-03-08T15:19:01;9.50;99.90
7290;DHT22;63176;52.678;13.250;2024-03-08T15:21:27;9.40;99.90
7290;DHT22;63176;52.678;13.250;2024-03-08T15:23:54;9.30;99.90
7290;DHT22;63176;52.678;13.250;2024-03-08T15:26:20;9.30;99.90
7290;DHT22;63176;52.678;13.250;2024-03-08T15:28:45;9.20;99.90
7290;DHT22;63176;52.678;13.250;2024-03-08T15:31:12;9.20;99.90
7290;DHT22;63176;52.678;13.250;2024-03-08T15:33:40;9.10;99.90
7290;DHT22;63176;52.678;13.250;2024-03-08T15:36:17;9.20;99.90
7290;DHT22;63176;52.678;13.250;2024-03-08T15:38:46;9.10;99.90
7290;DHT22;63176;52.678;13.250;2024-03-08T15:41:16;9.10;99.90
7290;DHT22;63176;52.678;13.250;2024-03-08T15:43:43;9.00;99.90
7290;DHT22;63176;52.678;13.250;2024-03-08T15:46:10;9.00;99.90
7290;DHT22;63176;52.678;13.250;2024-03-08T15:48:37;9.00;99.90
7290;DHT22;63176;52.678;13.250;2024-03-08T15:51:04;9.00;99.90
7290;DHT22;63176;52.678;13.250;2024-03-08T15:53:33;8.90;99.90
7290;DHT22;63176;52.678;13.250;2024-03-08T15:56:00;8.90;99.90